Time;durP1;ratioP1;P1;durP2;ratioP2;P2;SDS_P1;SDS_P2;PMS_P1;PMS_P2;Temp;Humidity;BMP_temperature;BMP_pressure;BME280_temperature;BME280_humidity;BME280_pressure;Samples;Min_cycle;Max_cycle;Signal;HPM_P1;HPM_P2
2022/02/05 00:02:41;;;;;;;;;;;;;;;-144.99;100.00;52668.22;5010227;28;20003;-59
2022/02/05 00:05:08;;;;;;;;;;;;;;;-144.99;100.00;52676.38;5010183;28;19979;-60
2022/02/05 00:07:41;;;;;;;;;;;;;;;-144.99;100.00;52649.88;5010934;28;19965;-60
2022/02/05 00:10:30;;;;;;;;;;;;;;;-144.99;100.00;52633.59;5025249;28;20523;-61
2022/02/05 00:13:14;;;;;;;;;;;;;;;-144.99;100.00;52656.00;5013106;28;20084;-60
2022/02/05 00:15:50;;;;;;;;;;;;;;;-144.99;100.00;52668.22;5011494;28;19986;-61
2022/02/05 00:40:18;;;;;;;;;;;;;;;-144.99;100.00;52627.47;5007205;28;19978;-60
2022/02/05 00:42:44;;;;;;;;;;;;;;;-144.99;100.00;52653.97;5013683;28;20086;-62
2022/02/05 00:45:12;;;;;;;;;;;;;;;-144.99;100.00;52696.78;5008932;28;20444;-60
2022/02/05 00:47:42;;;;;;;;;;;;;;;-144.99;100.00;52680.47;5010234;28;19978;-61
2022/02/05 00:50:15;;;;;;;;;;;;;;;-144.99;100.00;52668.22;5009380;28;19995;-61
2022/02/05 00:52:45;;;;;;;;;;;;;;;-144.99;100.00;52664.16;5010116;28;20352;-60
2022/02/05 00:55:22;;;;;;;;;;;;;;;-144.99;100.00;52704.94;5009976;28;19950;-59
2022/02/05 00:57:48;;;;;;;;;;;;;;;-144.99;100.00;52670.28;5010085;28;19981;-61
2022/02/05 01:00:16;;;;;;;;;;;;;;;-144.99;100.00;52684.53;5009820;28;20049;-60
2022/02/05 01:02:42;;;;;;;;;;;;;;;-144.99;100.00;52692.69;5010492;28;19999;-60
2022/02/05 01:05:09;;;;;;;;;;;;;;;-144.99;100.00;52686.59;5009767;28;20042;-60
2022/02/05 01:07:36;;;;;;;;;;;;;;;-144.99;100.00;52664.16;5011367;28;20440;-61
2022/02/05 01:10:02;;;;;;;;;;;;;;;-144.99;100.00;52666.19;5029049;28;19976;-59
2022/02/05 01:12:32;;;;;;;;;;;;;;;-144.99;100.00;52676.38;5027446;28;20046;-59
2022/02/05 01:15:01;;;;;;;;;;;;;;;-144.99;100.00;52678.44;5014221;28;19987;-60
2022/02/05 01:17:32;;;;;;;;;;;;;;;-144.99;100.00;52653.97;5013451;28;19985;-61
2022/02/05 01:20:22;;;;;;;;;;;;;;;-144.99;100.00;52651.94;5012928;28;20069;-61
2022/02/05 01:22:50;;;;;;;;;;;;;;;-144.99;100.00;52676.38;5015274;28;20098;-60
2022/02/05 01:25:21;;;;;;;;;;;;;;;-144.99;100.00;52649.88;5013348;28;19990;-59
2022/02/05 01:27:53;;;;;;;;;;;;;;;-144.99;100.00;52668.22;5013907;28;20011;-59
2022/02/05 01:30:24;;;;;;;;;;;;;;;-144.99;100.00;52651.94;5013771;28;20364;-60
2022/02/05 01:33:02;;;;;;;;;;;;;;;-144.99;100.00;52676.38;5013876;28;20028;-61
2022/02/05 01:35:37;;;;;;;;;;;;;;;-144.99;100.00;52653.97;5012814;28;19979;-60
2022/02/05 01:49:18;;;;;;;;;;;;;;;-144.99;100.00;52639.69;5019355;28;19999;-60
2022/02/05 01:54:36;;;;;;;;;;;;;;;-144.99;100.00;52680.47;5010512;28;19997;-60
2022/02/05 01:57:07;;;;;;;;;;;;;;;-144.99;100.00;52656.00;5013066;28;20014;-60
2022/02/05 01:59:52;;;;;;;;;;;;;;;-144.99;100.00;52684.53;5012596;28;19984;-60
2022/02/05 02:05:08;;;;;;;;;;;;;;;-144.99;100.00;52664.16;5012059;28;20457;-59
2022/02/05 02:13:45;;;;;;;;;;;;;;;-144.99;100.00;52674.34;5001696;28;20371;-59
2022/02/05 02:16:29;;;;;;;;;;;;;;;-144.99;100.00;52635.63;5012032;28;19989;-60
2022/02/05 02:19:04;;;;;;;;;;;;;;;-144.99;100.00;52674.34;5012521;28;19988;-59
2022/02/05 02:21:40;;;;;;;;;;;;;;;-144.99;100.00;52660.09;5013843;28;19972;-60
2022/02/05 02:24:13;;;;;;;;;;;;;;;-144.99;100.00;52709.00;5011453;28;20117;-59
2022/02/05 02:26:52;;;;;;;;;;;;;;;-144.99;100.00;52621.34;5012105;28;20028;-61
2022/02/05 02:29:29;;;;;;;;;;;;;;;-144.99;100.00;52684.53;5011194;28;20005;-59
2022/02/05 02:31:57;;;;;;;;;;;;;;;-144.99;100.00;52653.97;5011527;28;19981;-59
2022/02/05 02:34:28;;;;;;;;;;;;;;;-144.99;100.00;52700.84;5010917;28;20002;-59
2022/02/05 02:37:00;;;;;;;;;;;;;;;-144.99;100.00;52623.38;5005310;28;20008;-60
2022/02/05 02:39:30;;;;;;;;;;;;;;;-144.99;100.00;52639.69;5010770;28;19985;-59
2022/02/05 02:42:01;;;;;;;;;;;;;;;-144.99;100.00;52647.84;5019606;28;20027;-60
2022/02/05 02:44:28;;;;;;;;;;;;;;;-144.99;100.00;52643.78;5011166;28;20099;-62
2022/02/05 02:46:54;;;;;;;;;;;;;;;-144.99;100.00;52662.13;5022262;28;19980;-61
2022/02/05 02:49:35;;;;;;;;;;;;;;;-144.99;100.00;52658.03;5031089;28;19995;-61
2022/02/05 02:57:32;;;;;;;;;;;;;;;-144.99;100.00;52664.16;5031058;28;19983;-61
2022/02/05 03:00:02;;;;;;;;;;;;;;;-144.99;97.72;52635.63;5030759;28;19984;-60
2022/02/05 03:02:28;;;;;;;;;;;;;;;-144.99;97.15;52633.59;5031777;28;20003;-63
2022/02/05 03:04:55;;;;;;;;;;;;;;;-144.99;95.74;52631.53;5030353;28;20019;-62
2022/02/05 03:07:23;;;;;;;;;;;;;;;-144.99;96.06;52631.53;5025658;28;19977;-60
2022/02/05 03:09:52;;;;;;;;;;;;;;;-144.99;94.69;52639.69;5025095;28;20165;-61
2022/02/05 03:12:19;;;;;;;;;;;;;;;-144.99;95.13;52651.94;5024148;28;20044;-60
2022/02/05 03:14:46;;;;;;;;;;;;;;;-144.99;93.68;52643.78;5012943;28;20036;-60
2022/02/05 03:17:17;;;;;;;;;;;;;;;-144.99;92.29;52645.81;5010487;28;19985;-60
2022/02/05 03:19:44;;;;;;;;;;;;;;;-144.99;93.59;52656.00;5010094;28;20438;-59
2022/02/05 03:22:11;;;;;;;;;;;;;;;-144.99;96.38;52639.69;5012521;28;19985;-61
2022/02/05 03:24:38;;;;;;;;;;;;;;;-144.99;96.02;52651.94;5010266;28;19981;-62
2022/02/05 03:27:10;;;;;;;;;;;;;;;-144.99;96.52;52647.84;5010884;28;20197;-61
2022/02/05 03:29:37;;;;;;;;;;;;;;;-144.99;97.30;52649.88;5010317;28;20319;-61
2022/02/05 03:32:03;;;;;;;;;;;;;;;-144.99;99.49;52680.47;5010252;28;19981;-60
2022/02/05 03:34:30;;;;;;;;;;;;;;;-144.99;99.90;52692.69;5010566;28;19982;-61
2022/02/05 03:36:56;;;;;;;;;;;;;;;-144.99;100.00;52635.63;5010334;28;19982;-62
2022/02/05 03:39:23;;;;;;;;;;;;;;;-144.99;100.00;52668.22;5025925;28;20053;-62
2022/02/05 03:41:50;;;;;;;;;;;;;;;-144.99;100.00;52647.84;5030858;28;20354;-63
2022/02/05 03:44:17;;;;;;;;;;;;;;;-144.99;100.00;52651.94;5030886;28;19997;-60
2022/02/05 03:46:43;;;;;;;;;;;;;;;-144.99;100.00;52668.22;5030195;28;19987;-60
2022/02/05 03:49:12;;;;;;;;;;;;;;;-144.99;100.00;52668.22;5020788;28;20422;-63
2022/02/05 03:51:38;;;;;;;;;;;;;;;-144.99;100.00;52676.38;5009797;28;19998;-60
2022/02/05 03:54:04;;;;;;;;;;;;;;;-144.99;100.00;52664.16;5010325;28;20000;-60
2022/02/05 03:56:31;;;;;;;;;;;;;;;-144.99;100.00;52645.81;5010700;28;19989;-60
2022/02/05 03:58:58;;;;;;;;;;;;;;;-144.99;100.00;52676.38;5010638;28;19988;-61
2022/02/05 04:01:25;;;;;;;;;;;;;;;-144.99;100.00;52660.09;5010797;28;19988;-62
2022/02/05 04:03:51;;;;;;;;;;;;;;;-144.99;100.00;52717.16;5009993;28;20076;-60
2022/02/05 04:06:18;;;;;;;;;;;;;;;-144.99;100.00;52651.94;5010209;28;19988;-61
2022/02/05 04:08:45;;;;;;;;;;;;;;;-144.99;100.00;52664.16;5015945;28;19982;-61
2022/02/05 04:11:27;;;;;;;;;;;;;;;-144.99;100.00;52668.22;5017676;28;20009;-60
2022/02/05 04:16:39;;;;;;;;;;;;;;;-144.99;100.00;52664.16;5029371;28;20284;-60
2022/02/05 04:19:07;;;;;;;;;;;;;;;-144.99;100.00;52647.84;5040854;22;20020;-66
2022/02/05 04:21:34;;;;;;;;;;;;;;;-144.99;100.00;52692.69;5031501;28;20421;-66
2022/02/05 04:24:02;;;;;;;;;;;;;;;-144.99;100.00;52672.31;5030821;28;20007;-66
2022/02/05 04:26:29;;;;;;;;;;;;;;;-144.99;100.00;52656.00;5031158;28;20331;-66
2022/02/05 04:28:55;;;;;;;;;;;;;;;-144.99;100.00;52656.00;5031685;28;19986;-66
2022/02/05 04:31:24;;;;;;;;;;;;;;;-144.99;100.00;52664.16;5042902;28;20004;-66
2022/02/05 04:33:52;;;;;;;;;;;;;;;-144.99;100.00;52688.63;5048628;28;20069;-66
2022/02/05 04:36:19;;;;;;;;;;;;;;;-144.99;100.00;52651.94;5043927;28;19996;-66
2022/02/05 04:38:48;;;;;;;;;;;;;;;-144.99;100.00;52668.22;5041333;28;20003;-66
2022/02/05 04:41:20;;;;;;;;;;;;;;;-144.99;100.00;52668.22;5037757;28;19981;-66
2022/02/05 04:44:01;;;;;;;;;;;;;;;-144.99;100.00;52645.81;5029664;28;20088;-66
2022/02/05 04:49:30;;;;;;;;;;;;;;;-144.99;100.00;52643.78;5015404;28;19987;-66
2022/02/05 04:55:08;;;;;;;;;;;;;;;-144.99;100.00;52696.78;4992775;28;20036;-67
2022/02/05 04:57:58;;;;;;;;;;;;;;;-144.99;100.00;52676.38;5011740;28;20380;-66
2022/02/05 05:00:41;;;;;;;;;;;;;;;-144.99;100.00;52688.63;5014925;28;19989;-66
2022/02/05 05:06:26;;;;;;;;;;;;;;;-144.99;100.00;52670.28;4994535;28;19998;-66
2022/02/05 05:09:06;;;;;;;;;;;;;;;-144.99;100.00;52641.72;5034599;28;19973;-66
2022/02/05 05:19:49;;;;;;;;;;;;;;;-144.99;100.00;52625.44;5014418;28;20000;-67
2022/02/05 05:22:17;;;;;;;;;;;;;;;-144.99;100.00;52680.47;5016102;28;20322;-67
2022/02/05 05:24:44;;;;;;;;;;;;;;;-144.99;100.00;52684.53;5014003;28;20430;-66
2022/02/05 05:27:10;;;;;;;;;;;;;;;-144.99;100.00;52656.00;5013908;28;19987;-66
2022/02/05 05:29:36;;;;;;;;;;;;;;;-144.99;100.00;52647.84;5014761;28;19982;-66
2022/02/05 05:32:03;;;;;;;;;;;;;;;-144.99;100.00;52645.81;5015524;28;20521;-66
2022/02/05 05:34:29;;;;;;;;;;;;;;;-144.99;100.00;52674.34;5016635;28;19980;-66
2022/02/05 05:36:56;;;;;;;;;;;;;;;-144.99;100.00;52660.09;5033547;28;20006;-66
2022/02/05 05:39:24;;;;;;;;;;;;;;;-144.99;100.00;52688.63;5033218;28;20011;-66
2022/02/05 05:41:51;;;;;;;;;;;;;;;-144.99;100.00;52696.78;5034144;28;19987;-66
2022/02/05 05:44:55;;;;;;;;;;;;;;;-144.99;100.00;52647.84;5033970;28;20056;-69
2022/02/05 05:47:35;;;;;;;;;;;;;;;-144.99;100.00;52690.66;5029251;28;20426;-66
2022/02/05 05:50:08;;;;;;;;;;;;;;;-144.99;100.00;52696.78;5015561;28;20344;-66
2022/02/05 05:52:36;;;;;;;;;;;;;;;-144.99;100.00;52664.16;5019185;28;20456;-66
2022/02/05 05:55:04;;;;;;;;;;;;;;;-144.99;100.00;52682.50;5034282;28;20123;-66
2022/02/05 05:57:31;;;;;;;;;;;;;;;-144.99;100.00;52688.63;5033883;28;20020;-66
2022/02/05 05:59:57;;;;;;;;;;;;;;;-144.99;100.00;52680.47;5033827;28;19985;-66
2022/02/05 06:02:23;;;;;;;;;;;;;;;-144.99;100.00;52668.22;5034036;28;19988;-66
2022/02/05 06:04:50;;;;;;;;;;;;;;;-144.99;100.00;52653.97;5033567;28;19980;-66
2022/02/05 06:07:16;;;;;;;;;;;;;;;-144.99;100.00;52649.88;5015388;28;19973;-66
2022/02/05 06:09:43;;;;;;;;;;;;;;;-144.99;100.00;52666.19;5027548;28;19981;-66
2022/02/05 06:12:12;;;;;;;;;;;;;;;-144.99;100.00;52664.16;5047898;28;20019;-66
2022/02/05 06:14:39;;;;;;;;;;;;;;;-144.99;100.00;52668.22;5036862;28;19983;-67
2022/02/05 06:17:09;;;;;;;;;;;;;;;-144.99;100.00;52696.78;5033968;28;19981;-66
2022/02/05 06:19:40;;;;;;;;;;;;;;;-144.99;100.00;52664.16;5031303;28;20480;-66
2022/02/05 06:22:06;;;;;;;;;;;;;;;-144.99;100.00;52672.31;5004549;28;19996;-66
2022/02/05 06:24:33;;;;;;;;;;;;;;;-144.99;100.00;52684.53;5013443;28;19992;-66
2022/02/05 06:26:59;;;;;;;;;;;;;;;-144.99;100.00;52680.47;5013933;28;19988;-66
2022/02/05 06:29:27;;;;;;;;;;;;;;;-144.99;100.00;52672.31;5014077;28;19980;-66
2022/02/05 06:31:53;;;;;;;;;;;;;;;-144.99;100.00;52653.97;5013829;28;20003;-66
2022/02/05 06:34:20;;;;;;;;;;;;;;;-144.99;100.00;52676.38;5013544;28;20005;-66
2022/02/05 06:36:46;;;;;;;;;;;;;;;-144.99;100.00;52668.22;5013090;28;20322;-66
2022/02/05 06:39:12;;;;;;;;;;;;;;;-144.99;100.00;52678.44;5023818;28;20539;-66
2022/02/05 06:41:39;;;;;;;;;;;;;;;-144.99;100.00;52696.78;5020435;28;20457;-66
2022/02/05 06:44:05;;;;;;;;;;;;;;;-144.99;100.00;52660.09;5013111;28;20029;-66
2022/02/05 06:46:33;;;;;;;;;;;;;;;-144.99;100.00;52664.16;5020962;28;20197;-66
2022/02/05 06:48:59;;;;;;;;;;;;;;;-144.99;100.00;52692.69;5033120;28;20068;-66
2022/02/05 06:51:26;;;;;;;;;;;;;;;-144.99;100.00;52668.22;5032245;28;20002;-66
2022/02/05 06:53:52;;;;;;;;;;;;;;;-144.99;100.00;52688.63;5032766;28;20021;-66
2022/02/05 06:56:19;;;;;;;;;;;;;;;-144.99;100.00;52623.38;5033315;28;19980;-66
2022/02/05 06:58:48;;;;;;;;;;;;;;;-144.99;100.00;52680.47;5030763;28;20075;-69
2022/02/05 07:01:14;;;;;;;;;;;;;;;-144.99;100.00;52619.31;5012949;28;19988;-66
2022/02/05 07:03:42;;;;;;;;;;;;;;;-144.99;100.00;52680.47;5012835;28;19998;-66
2022/02/05 07:06:08;;;;;;;;;;;;;;;-144.99;100.00;52635.63;5012194;28;19991;-66
2022/02/05 07:08:35;;;;;;;;;;;;;;;-144.99;100.00;52662.13;5017230;28;19977;-66
2022/02/05 07:11:01;;;;;;;;;;;;;;;-144.99;100.00;52680.47;5023063;28;20000;-66
2022/02/05 07:13:27;;;;;;;;;;;;;;;-144.99;100.00;52651.94;5025813;28;19997;-66
2022/02/05 07:16:00;;;;;;;;;;;;;;;-144.99;100.00;52658.03;5012930;28;20075;-66
2022/02/05 07:18:33;;;;;;;;;;;;;;;-144.99;100.00;52709.00;5012484;28;20005;-66
2022/02/05 07:21:05;;;;;;;;;;;;;;;-144.99;100.00;52656.00;5012860;28;20015;-66
2022/02/05 07:29:14;;;;;;;;;;;;;;;-144.99;100.00;52684.53;5012851;28;19985;-65
2022/02/05 07:31:42;;;;;;;;;;;;;;;-144.99;100.00;52635.63;5012698;28;19996;-65
2022/02/05 07:34:09;;;;;;;;;;;;;;;-144.99;100.00;52641.72;5025620;28;20484;-66
2022/02/05 07:36:36;;;;;;;;;;;;;;;-144.99;100.00;52647.84;5031884;28;19980;-66
2022/02/05 07:39:06;;;;;;;;;;;;;;;-144.99;100.00;52623.38;5032036;28;19991;-65
2022/02/05 07:41:32;;;;;;;;;;;;;;;-144.99;100.00;52643.78;5031647;28;20395;-66
2022/02/05 07:43:59;;;;;;;;;;;;;;;-144.99;100.00;52647.84;5031641;28;20344;-65
2022/02/05 07:46:26;;;;;;;;;;;;;;;-144.99;100.00;52668.22;5031649;28;19992;-66
2022/02/05 07:48:53;;;;;;;;;;;;;;;-144.99;100.00;52635.63;5041069;28;20020;-66
2022/02/05 07:51:19;;;;;;;;;;;;;;;-144.99;100.00;52680.47;5031056;28;19994;-65
2022/02/05 07:53:47;;;;;;;;;;;;;;;-144.99;100.00;52668.22;5023502;28;20002;-65
2022/02/05 07:56:14;;;;;;;;;;;;;;;-144.99;100.00;52678.44;5021339;28;19991;-65
2022/02/05 07:58:40;;;;;;;;;;;;;;;-144.99;100.00;52664.16;5032423;28;19985;-65
2022/02/05 08:01:07;;;;;;;;;;;;;;;-144.99;100.00;52676.38;5032764;28;20489;-65
2022/02/05 08:03:33;;;;;;;;;;;;;;;-144.99;100.00;52656.00;5031926;28;20002;-65
2022/02/05 08:06:00;;;;;;;;;;;;;;;-144.99;100.00;52668.22;5031944;28;19986;-65
2022/02/05 08:08:30;;;;;;;;;;;;;;;-144.99;100.00;52682.50;5023709;28;19985;-65
2022/02/05 08:11:01;;;;;;;;;;;;;;;-144.99;100.00;52631.53;5014648;28;20462;-66
2022/02/05 08:13:31;;;;;;;;;;;;;;;-144.99;99.95;52658.03;5012389;28;19997;-65
2022/02/05 08:16:09;;;;;;;;;;;;;;;-144.99;99.27;52635.63;5020610;28;20023;-65
2022/02/05 08:18:38;;;;;;;;;;;;;;;-144.99;98.90;52672.31;5031320;28;19992;-65
2022/02/05 08:21:04;;;;;;;;;;;;;;;-144.99;98.57;52651.94;5018789;28;19978;-65
2022/02/05 08:23:31;;;;;;;;;;;;;;;-144.99;97.92;52637.66;5013979;28;19996;-65
2022/02/05 08:25:59;;;;;;;;;;;;;;;-144.99;97.45;52635.63;5011589;28;19981;-67
2022/02/05 08:28:29;;;;;;;;;;;;;;;-144.99;96.51;52660.09;5011103;28;20296;-67
2022/02/05 08:30:55;;;;;;;;;;;;;;;-144.99;97.11;52615.25;5010944;28;19989;-67
2022/02/05 08:33:22;;;;;;;;;;;;;;;-144.99;96.38;52615.25;5030708;28;20116;-65
2022/02/05 08:35:49;;;;;;;;;;;;;;;-144.99;95.60;52631.53;5031143;28;20393;-65
2022/02/05 08:38:16;;;;;;;;;;;;;;;-144.99;95.49;52639.69;5020604;28;19974;-65
2022/02/05 08:40:42;;;;;;;;;;;;;;;-144.99;95.80;52603.00;5023005;28;20620;-65
2022/02/05 08:43:10;;;;;;;;;;;;;;;-144.99;95.48;52639.69;5011358;28;20031;-65
2022/02/05 08:45:37;;;;;;;;;;;;;;;-144.99;98.54;52680.47;5010729;28;20068;-65
2022/02/05 08:48:04;;;;;;;;;;;;;;;-144.99;99.66;52647.84;5012213;28;19982;-66
2022/02/05 08:50:30;;;;;;;;;;;;;;;-144.99;100.00;52613.19;5011967;28;20016;-66
2022/02/05 08:52:57;;;;;;;;;;;;;;;-144.99;100.00;52656.00;5023220;28;20005;-65
2022/02/05 08:55:23;;;;;;;;;;;;;;;-144.99;100.00;52688.63;5011947;28;20397;-65
2022/02/05 08:57:51;;;;;;;;;;;;;;;-144.99;100.00;52598.94;5011491;28;20096;-65
2022/02/05 09:00:25;;;;;;;;;;;;;;;-144.99;100.00;52676.38;5011256;28;20080;-65
2022/02/05 09:02:58;;;;;;;;;;;;;;;-144.99;100.00;52643.78;5011825;28;20004;-65
2022/02/05 09:05:36;;;;;;;;;;;;;;;-144.99;100.00;52649.88;5010566;28;20076;-65
2022/02/05 09:08:08;;;;;;;;;;;;;;;-144.99;100.00;52621.34;5015294;28;20048;-65
2022/02/05 09:10:48;;;;;;;;;;;;;;;-144.99;100.00;52613.19;5021881;28;19978;-64
2022/02/05 09:13:36;;;;;;;;;;;;;;;-144.99;100.00;52658.03;5012720;28;20036;-66
2022/02/05 09:16:03;;;;;;;;;;;;;;;-144.99;100.00;52641.72;5000806;28;19988;-64
2022/02/05 09:18:30;;;;;;;;;;;;;;;-144.99;100.00;52660.09;5014537;28;19985;-64
2022/02/05 09:20:56;;;;;;;;;;;;;;;-144.99;97.67;52639.69;5017799;28;19978;-65
2022/02/05 09:23:23;;;;;;;;;;;;;;;-144.99;94.51;52639.69;5013248;28;20259;-65
2022/02/05 09:25:49;;;;;;;;;;;;;;;-144.99;94.40;52598.94;5023407;28;19970;-64
2022/02/05 09:28:16;;;;;;;;;;;;;;;-144.99;94.04;52613.19;5031946;28;19988;-64
2022/02/05 09:30:47;;;;;;;;;;;;;;;-144.99;94.34;52635.63;5032320;28;19981;-64
2022/02/05 09:33:15;;;;;;;;;;;;;;;-144.99;94.38;52619.31;5031654;28;19995;-65
2022/02/05 09:35:42;;;;;;;;;;;;;;;-144.99;93.75;52668.22;5021523;28;20103;-65
2022/02/05 09:38:08;;;;;;;;;;;;;;;-144.99;92.89;52627.47;5014440;28;19980;-65
2022/02/05 09:40:35;;;;;;;;;;;;;;;-144.99;91.33;52619.31;5013990;28;19990;-65
2022/02/05 09:43:02;;;;;;;;;;;;;;;-144.99;87.31;52570.38;5014341;28;19996;-65
2022/02/05 09:45:28;;;;;;;;;;;;;;;-144.99;83.86;52586.69;5013302;28;19984;-65
2022/02/05 09:47:55;;;;;;;;;;;;;;;-144.99;81.09;52582.63;5012905;28;19972;-65
2022/02/05 09:50:23;;;;;;;;;;;;;;;-144.99;79.57;52590.78;5019631;28;20019;-65
2022/02/05 09:52:52;;;;;;;;;;;;;;;-144.99;78.92;52643.78;5013570;28;20007;-66
2022/02/05 09:55:18;;;;;;;;;;;;;;;-144.99;76.65;52615.25;5013685;28;19980;-66
2022/02/05 09:57:45;;;;;;;;;;;;;;;-144.99;76.86;52570.38;5013683;28;20500;-66
2022/02/05 10:00:15;;;;;;;;;;;;;;;-144.99;77.70;52605.03;5013272;28;19980;-66
2022/02/05 10:02:41;;;;;;;;;;;;;;;-144.99;77.37;52570.38;5013637;28;20004;-66
2022/02/05 10:05:16;;;;;;;;;;;;;;;-144.99;77.30;52586.69;5012871;28;19987;-65
2022/02/05 10:07:53;;;;;;;;;;;;;;;-144.99;76.33;52570.38;5013707;28;19976;-65
2022/02/05 10:10:20;;;;;;;;;;;;;;;-144.99;75.16;52574.47;5017368;28;19987;-65
2022/02/05 10:13:05;;;;;;;;;;;;;;;-144.99;74.41;52574.47;5013145;28;20103;-65
2022/02/05 10:15:32;;;;;;;;;;;;;;;-144.99;72.56;52554.09;5013651;28;20055;-65
2022/02/05 10:17:59;;;;;;;;;;;;;;;-144.99;70.48;52527.59;5014024;28;19992;-66
2022/02/05 10:20:50;;;;;;;;;;;;;;;-144.99;69.16;52574.47;5014341;28;19981;-66
2022/02/05 10:23:25;;;;;;;;;;;;;;;-144.99;70.44;52558.16;4977510;28;20087;-59
2022/02/05 10:25:52;;;;;;;;;;;;;;;-144.99;70.78;52562.25;4986244;28;19984;-62
2022/02/05 10:28:19;;;;;;;;;;;;;;;-144.99;70.35;52545.94;4992629;28;20386;-59
2022/02/05 10:30:48;;;;;;;;;;;;;;;-144.99;68.68;52517.41;4992465;28;19980;-59
2022/02/05 10:33:22;;;;;;;;;;;;;;;-144.99;66.16;52472.56;4991852;28;20000;-60
2022/02/05 10:35:55;;;;;;;;;;;;;;;-144.99;63.89;52484.78;4992473;28;20420;-59
2022/02/05 10:38:50;;;;;;;;;;;;;;;-144.99;64.37;52525.56;4970076;28;20269;-61
2022/02/05 10:44:20;;;;;;;;;;;;;;;-144.99;62.86;52441.97;4970106;28;20454;-59
2022/02/05 10:46:52;;;;;;;;;;;;;;;-144.99;61.13;52456.25;4969589;28;19981;-59
2022/02/05 10:49:33;;;;;;;;;;;;;;;-144.99;60.68;52448.09;4981055;28;20215;-59
2022/02/05 10:52:01;;;;;;;;;;;;;;;-144.99;60.82;52464.41;4991793;28;19989;-61
2022/02/05 10:54:37;;;;;;;;;;;;;;;-144.99;60.23;52513.31;4991762;28;20029;-59
2022/02/05 10:57:12;;;;;;;;;;;;;;;-144.99;61.58;52494.97;4992123;28;19981;-60
2022/02/05 11:00:10;;;;;;;;;;;;;;;-144.99;62.42;52558.16;4991967;28;19978;-59
2022/02/05 11:05:33;;;;;;;;;;;;;;;-144.99;63.60;52460.31;4991709;28;20368;-61
2022/02/05 11:08:00;;;;;;;;;;;;;;;-144.99;61.85;52464.41;4981923;28;20427;-61
2022/02/05 11:13:21;;;;;;;;;;;;;;;-144.99;62.28;52484.78;4965924;28;19978;-63
2022/02/05 11:18:47;;;;;;;;;;;;;;;-144.99;61.78;52444.03;4991991;28;20392;-59
2022/02/05 11:21:17;;;;;;;;;;;;;;;-144.99;62.40;52598.94;4987419;28;19974;-61
2022/02/05 11:23:47;;;;;;;;;;;;;;;-144.99;64.77;52586.69;4966902;28;19990;-58
2022/02/05 11:26:18;;;;;;;;;;;;;;;-144.99;66.66;52639.69;4991665;28;19991;-60
2022/02/05 11:28:48;;;;;;;;;;;;;;;-144.99;69.68;52623.38;4991812;28;19976;-60
2022/02/05 11:31:16;;;;;;;;;;;;;;;-144.99;72.68;52653.97;4991218;28;19982;-61
2022/02/05 11:33:43;;;;;;;;;;;;;;;-144.99;75.52;52660.09;4991801;28;20003;-61
2022/02/05 11:38:58;;;;;;;;;;;;;;;-144.99;78.11;52611.16;4986618;28;19999;-60
2022/02/05 11:41:26;;;;;;;;;;;;;;;-144.99;77.75;52651.94;4991920;28;20034;-60
2022/02/05 11:44:07;;;;;;;;;;;;;;;-144.99;78.01;52635.63;4991247;28;20017;-60
2022/02/05 11:46:34;;;;;;;;;;;;;;;-144.99;78.25;52684.53;4993008;28;19990;-61
2022/02/05 11:49:04;;;;;;;;;;;;;;;-144.99;77.62;52651.94;4983169;28;20086;-59
2022/02/05 11:51:36;;;;;;;;;;;;;;;-144.99;77.12;52615.25;4982460;28;20019;-59
2022/02/05 11:54:08;;;;;;;;;;;;;;;-144.99;77.22;52574.47;4992441;28;20091;-60
2022/02/05 11:56:49;;;;;;;;;;;;;;;-144.99;76.46;52647.84;4992796;28;20031;-60
2022/02/05 11:59:16;;;;;;;;;;;;;;;-144.99;74.80;52460.31;4992704;28;19980;-62
2022/02/05 12:01:44;;;;;;;;;;;;;;;-144.99;69.84;52621.34;4992132;28;20057;-60
2022/02/05 12:04:24;;;;;;;;;;;;;;;-144.99;68.80;52505.16;4992809;28;20043;-59
2022/02/05 12:06:51;;;;;;;;;;;;;;;-144.99;67.84;52619.31;4992424;28;20443;-60
2022/02/05 12:09:44;;;;;;;;;;;;;;;-144.99;68.16;52623.38;4972225;28;19981;-59
2022/02/05 12:12:39;;;;;;;;;;;;;;;-144.99;70.19;52643.78;4970676;28;20103;-60
2022/02/05 12:15:22;;;;;;;;;;;;;;;-144.99;71.87;52664.16;4993115;28;19979;-60
2022/02/05 12:18:08;;;;;;;;;;;;;;;-144.99;72.75;52643.78;4995396;28;19980;-63
2022/02/05 12:20:49;;;;;;;;;;;;;;;-144.99;73.01;52615.25;4989234;28;19977;-59
2022/02/05 12:23:28;;;;;;;;;;;;;;;-144.99;73.68;52625.44;4990080;28;20472;-59
2022/02/05 12:26:18;;;;;;;;;;;;;;;-144.99;74.41;52631.53;4993349;28;20026;-60
2022/02/05 12:28:49;;;;;;;;;;;;;;;-144.99;74.29;52607.09;4994703;28;20196;-59
2022/02/05 12:31:36;;;;;;;;;;;;;;;-144.99;74.07;52651.94;4993232;28;19956;-60
2022/02/05 12:34:03;;;;;;;;;;;;;;;-144.99;74.59;52598.94;4993061;28;20005;-59
2022/02/05 12:36:31;;;;;;;;;;;;;;;-144.99;72.60;52605.03;4988552;28;19972;-60
2022/02/05 12:38:58;;;;;;;;;;;;;;;-144.99;67.59;52431.78;4975952;28;20433;-61
2022/02/05 12:41:26;;;;;;;;;;;;;;;-144.99;64.64;52448.09;4985457;28;19984;-59
2022/02/05 12:43:54;;;;;;;;;;;;;;;-144.99;63.17;52458.28;4993031;28;20000;-59
2022/02/05 12:46:22;;;;;;;;;;;;;;;-144.99;59.21;52415.47;4992114;28;20020;-58
2022/02/05 12:48:53;;;;;;;;;;;;;;;-144.99;57.18;52362.50;4990444;28;19981;-63
2022/02/05 12:51:20;;;;;;;;;;;;;;;-144.99;55.83;52448.09;4989322;28;19981;-59
2022/02/05 12:53:46;;;;;;;;;;;;;;;-144.99;57.02;52529.63;4989676;28;20001;-59
2022/02/05 12:56:14;;;;;;;;;;;;;;;-144.99;57.82;52550.00;4990866;28;19986;-59
2022/02/05 12:58:51;;;;;;;;;;;;;;;-144.99;56.81;52501.09;4990707;28;19984;-60
2022/02/05 13:01:19;;;;;;;;;;;;;;;-144.99;57.49;52415.47;4990551;28;19980;-60
2022/02/05 13:03:45;;;;;;;;;;;;;;;-144.99;58.16;52439.94;4992726;28;20004;-60
2022/02/05 13:06:16;;;;;;;;;;;;;;;-144.99;59.26;52586.69;4994355;28;20014;-58
2022/02/05 13:08:47;;;;;;;;;;;;;;;-144.99;61.16;52635.63;4979195;28;19982;-60
2022/02/05 13:11:13;;;;;;;;;;;;;;;-144.99;64.16;52623.38;4980757;28;19977;-60
2022/02/05 13:13:49;;;;;;;;;;;;;;;-144.99;65.83;52627.47;4978907;28;20098;-61
2022/02/05 13:16:15;;;;;;;;;;;;;;;-144.99;67.29;52656.00;4993823;28;19981;-59
2022/02/05 13:18:54;;;;;;;;;;;;;;;-144.99;67.68;52598.94;4993966;28;19984;-58
2022/02/05 13:26:57;;;;;;;;;;;;;;;-144.99;68.67;52635.63;4994369;28;20034;-60
2022/02/05 13:29:40;;;;;;;;;;;;;;;-144.99;69.38;52647.84;4993870;28;20309;-59
2022/02/05 13:35:01;;;;;;;;;;;;;;;-144.99;69.63;52670.28;4992942;28;19987;-60
2022/02/05 13:37:40;;;;;;;;;;;;;;;-144.99;69.87;52598.94;4993416;28;19985;-59
2022/02/05 13:40:08;;;;;;;;;;;;;;;-144.99;69.98;52629.50;4993342;28;20467;-58
2022/02/05 13:42:41;;;;;;;;;;;;;;;-144.99;69.80;52635.63;4993636;28;19997;-59
2022/02/05 13:45:12;;;;;;;;;;;;;;;-144.99;69.97;52613.19;4992484;28;20068;-60
2022/02/05 13:47:50;;;;;;;;;;;;;;;-144.99;70.42;52629.50;4988690;28;19978;-59
2022/02/05 13:50:21;;;;;;;;;;;;;;;-144.99;69.62;52651.94;4980992;28;19988;-61
2022/02/05 13:52:48;;;;;;;;;;;;;;;-144.99;70.71;52651.94;4993513;28;20412;-61
2022/02/05 13:55:19;;;;;;;;;;;;;;;-144.99;70.62;52672.31;4993905;28;19985;-61
2022/02/05 13:57:56;;;;;;;;;;;;;;;-144.99;71.09;52647.84;4993485;28;19981;-59
2022/02/05 14:00:23;;;;;;;;;;;;;;;-144.99;71.58;52656.00;4992952;28;20086;-61
2022/02/05 14:02:57;;;;;;;;;;;;;;;-144.99;72.03;52619.31;4993415;28;20020;-60
2022/02/05 14:05:25;;;;;;;;;;;;;;;-144.99;71.55;52635.63;4992708;28;19986;-60
2022/02/05 14:07:51;;;;;;;;;;;;;;;-144.99;70.38;52670.28;4984369;28;20435;-59
2022/02/05 14:10:18;;;;;;;;;;;;;;;-144.99;70.10;52625.44;4975219;28;20007;-62
2022/02/05 14:12:49;;;;;;;;;;;;;;;-144.99;69.87;52670.28;4992884;28;19970;-60
2022/02/05 14:15:15;;;;;;;;;;;;;;;-144.99;69.37;52660.09;4991970;28;19982;-59
2022/02/05 14:17:42;;;;;;;;;;;;;;;-144.99;70.09;52660.09;4992890;28;19986;-60